Time;durP1;ratioP1;P1;durP2;ratioP2;P2;SDS_P1;SDS_P2;PMS_P1;PMS_P2;Temp;Humidity;BMP_temperature;BMP_pressure;BME280_temperature;BME280_humidity;BME280_pressure;Samples;Min_cycle;Max_cycle;Signal;HPM_P1;HPM_P2
2022/06/01 00:01:44;;;;;;;7.18;2.80;;;14.70;99.90;;;;;;4865230;29;20033;-90
2022/06/01 00:04:11;;;;;;;7.82;2.83;;;15.50;99.90;;;;;;4880555;29;20464;-89
2022/06/01 00:06:37;;;;;;;5.03;2.40;;;16.40;99.90;;;;;;4860098;29;20041;-89
2022/06/01 00:09:12;;;;;;;8.90;2.72;;;;;;;;;;4872800;29;20028;-84
2022/06/01 00:11:39;;;;;;;4.50;2.08;;;17.30;99.90;;;;;;4871010;29;20037;-92
2022/06/01 00:14:05;;;;;;;4.47;2.17;;;17.70;99.90;;;;;;4859434;29;20033;-89
2022/06/01 00:16:31;;;;;;;5.07;1.83;;;16.80;99.10;;;;;;4876919;29;20028;-88
2022/06/01 00:18:57;;;;;;;6.18;2.30;;;18.20;99.50;;;;;;4877856;29;20327;-95
2022/06/01 00:21:23;;;;;;;6.57;2.55;;;17.90;98.20;;;;;;4879559;29;20508;-84
2022/06/01 00:24:00;;;;;;;5.50;2.22;;;17.90;99.40;;;;;;4884286;29;20508;-95
2022/06/01 00:26:26;;;;;;;3.67;1.80;;;18.10;99.10;;;;;;4881789;29;20036;-94
2022/06/01 00:28:51;;;;;;;6.88;2.40;;;18.20;98.90;;;;;;4885520;29;20157;-81
2022/06/01 00:31:17;;;;;;;5.25;2.08;;;18.30;98.50;;;;;;4881229;29;20032;-87
2022/06/01 00:33:43;;;;;;;6.60;2.17;;;18.40;98.20;;;;;;4882411;29;20030;-87
2022/06/01 00:36:10;;;;;;;4.57;1.83;;;18.10;98.80;;;;;;4881442;29;20025;-88
2022/06/01 00:38:36;;;;;;;5.00;2.08;;;18.30;98.40;;;;;;4861279;29;20093;-91
2022/06/01 00:41:02;;;;;;;4.88;1.70;;;18.40;98.10;;;;;;4871247;29;20086;-88
2022/06/01 00:43:45;;;;;;;7.88;1.95;;;18.60;97.80;;;;;;4855135;29;20449;-82
2022/06/01 00:46:12;;;;;;;5.63;2.10;;;19.20;97.60;;;;;;4855240;29;20454;-93
2022/06/01 00:48:43;;;;;;;6.90;2.75;;;18.70;97.30;;;;;;4872021;29;20250;-82
2022/06/01 00:51:11;;;;;;;8.57;2.42;;;18.70;97.00;;;;;;4874704;29;20022;-88
2022/06/01 00:53:38;;;;;;;6.18;2.30;;;18.70;96.90;;;;;;4859801;29;20061;-83
2022/06/01 00:56:11;;;;;;;9.23;2.70;;;18.70;96.90;;;;;;4878664;29;20013;-88
2022/06/01 00:58:44;;;;;;;9.02;2.65;;;18.80;96.60;;;;;;4852513;29;20040;-87
2022/06/01 01:01:16;;;;;;;9.63;2.85;;;19.40;96.80;;;;;;4877091;29;20029;-88
2022/06/01 01:03:45;;;;;;;6.45;2.65;;;18.80;96.60;;;;;;4888629;29;20036;-87
2022/06/01 01:06:27;;;;;;;5.32;1.92;;;18.70;96.60;;;;;;4891209;29;20040;-84
2022/06/01 01:08:54;;;;;;;7.03;2.63;;;18.80;96.50;;;;;;4892898;29;20037;-89
2022/06/01 01:11:29;;;;;;;8.45;2.60;;;18.80;96.50;;;;;;4888414;29;20025;-82
2022/06/01 01:13:58;;;;;;;8.93;3.15;;;18.80;96.40;;;;;;4884746;29;20112;-88
2022/06/01 01:16:25;;;;;;;7.47;3.00;;;18.80;96.30;;;;;;4881451;29;20033;-93
2022/06/01 01:19:08;;;;;;;5.65;2.50;;;18.80;96.20;;;;;;4880445;29;20058;-96
2022/06/01 01:21:41;;;;;;;8.18;2.70;;;18.80;96.10;;;;;;4871595;29;20119;-90
2022/06/01 01:24:22;;;;;;;7.03;2.75;;;18.60;96.00;;;;;;4892581;29;20061;-88
2022/06/01 01:26:57;;;;;;;7.38;3.03;;;18.50;96.60;;;;;;4883690;29;20037;-87
2022/06/01 01:29:51;;;;;;;6.53;2.50;;;18.50;96.50;;;;;;4872316;29;20053;-94
2022/06/01 01:32:17;;;;;;;6.57;3.03;;;18.50;96.60;;;;;;4795994;29;20042;-80
2022/06/01 01:34:45;;;;;;;6.72;2.65;;;18.50;96.10;;;;;;4795900;29;20101;-94
2022/06/01 01:37:25;;;;;;;9.82;3.65;;;18.40;96.50;;;;;;4801756;29;20465;-95
2022/06/01 01:39:56;;;;;;;9.98;2.97;;;18.30;96.80;;;;;;4797095;29;20031;-84
2022/06/01 01:42:22;;;;;;;8.20;2.55;;;18.30;96.80;;;;;;4801973;29;20455;-84
2022/06/01 01:45:17;;;;;;;5.95;2.55;;;17.60;97.30;;;;;;4801099;29;20491;-87
2022/06/01 01:47:43;;;;;;;6.10;2.53;;;18.00;98.10;;;;;;4804176;29;20457;-89
2022/06/01 01:50:10;;;;;;;6.40;2.58;;;17.30;98.20;;;;;;4787013;29;20043;-87
2022/06/01 01:52:36;;;;;;;7.82;2.75;;;17.60;97.70;;;;;;4801659;29;20366;-85
2022/06/01 01:55:44;;;;;;;5.95;2.30;;;17.80;97.80;;;;;;4784597;29;20088;-90
2022/06/01 01:58:43;;;;;;;7.43;2.47;;;17.80;97.30;;;;;;4747816;30;20044;-91
2022/06/01 02:01:25;;;;;;;4.85;2.05;;;18.00;97.30;;;;;;4764748;30;20399;-92
2022/06/01 02:07:29;;;;;;;6.70;2.40;;;18.70;96.60;;;;;;4766776;30;20058;-83
2022/06/01 02:12:41;;;;;;;7.30;2.22;;;18.10;97.00;;;;;;4816039;29;20530;-84
2022/06/01 02:15:14;;;;;;;5.55;2.42;;;18.40;96.50;;;;;;4817258;29;20030;-82
2022/06/01 02:17:49;;;;;;;6.32;2.45;;;18.40;96.20;;;;;;4815171;29;20019;-86
2022/06/01 02:20:23;;;;;;;6.88;2.70;;;18.40;96.20;;;;;;4816535;29;20152;-94
2022/06/01 02:22:50;;;;;;;6.93;2.80;;;18.50;96.20;;;;;;4817035;29;20549;-81
2022/06/01 02:25:17;;;;;;;6.78;3.08;;;18.50;96.10;;;;;;4818821;29;20398;-81
2022/06/01 02:27:44;;;;;;;12.48;3.75;;;18.60;95.90;;;;;;4818003;29;20474;-93
2022/06/01 02:30:53;;;;;;;16.67;5.75;;;18.60;95.90;;;;;;4819821;29;20062;-95
2022/06/01 02:45:09;;;;;;;8.77;3.45;;;16.10;97.80;;;;;;4976510;23;20355;-89
2022/06/01 02:47:44;;;;;;;8.70;3.00;;;15.10;99.90;;;;;;4881988;29;20283;-88
2022/06/01 02:50:13;;;;;;;6.10;2.75;;;15.00;99.90;;;;;;4877883;29;20046;-90
2022/06/01 02:53:00;;;;;;;6.18;2.40;;;14.10;99.90;;;;;;4891965;29;20025;-88
2022/06/01 02:55:51;;;;;;;12.98;4.82;;;13.70;99.90;;;;;;4898984;29;20029;-81
2022/06/01 02:58:19;;;;;;;11.68;5.18;;;14.20;99.90;;;;;;4941801;23;20060;-78
2022/06/01 03:05:56;;;;;;;11.05;3.05;;;16.20;99.90;;;;;;4934652;23;20048;-78
2022/06/01 03:18:43;;;;;;;9.68;3.72;;;17.60;98.00;;;;;;4929795;23;20040;-79
2022/06/01 03:21:31;;;;;;;9.13;4.43;;;17.80;97.60;;;;;;4919999;29;20064;-77
2022/06/01 03:24:05;;;;;;;10.13;4.00;;;17.90;96.60;;;;;;4921637;29;20013;-77
2022/06/01 03:26:31;;;;;;;9.98;3.47;;;17.30;98.10;;;;;;4905656;29;20056;-78
2022/06/01 03:29:10;;;;;;;8.57;3.70;;;17.10;98.20;;;;;;4921876;29;20021;-79
2022/06/01 03:42:04;;;;;;;9.45;3.03;;;18.00;96.50;;;;;;1102396;23;20319;-76
2022/06/01 03:47:11;;;;;;;8.45;3.33;;;18.10;96.60;;;;;;4936554;28;20050;-76
2022/06/01 03:50:00;;;;;;;8.15;3.22;;;18.20;96.30;;;;;;4923069;29;20023;-77
2022/06/01 03:57:37;;;;;;;6.93;3.05;;;18.30;95.50;;;;;;730041;23;20304;-79
2022/06/01 04:02:41;;;;;;;7.95;3.28;;;18.30;95.30;;;;;;1133895;27;20337;-79
2022/06/01 04:05:44;;;;;;;11.27;3.03;;;18.50;96.00;;;;;;4942112;28;20024;-79
2022/06/01 04:08:32;;;;;;;7.72;3.13;;;18.30;95.60;;;;;;4918409;29;20035;-78
2022/06/01 04:11:03;;;;;;;8.75;3.47;;;18.70;96.10;;;;;;4900391;29;20037;-77
2022/06/01 04:13:35;;;;;;;8.50;3.72;;;18.30;95.90;;;;;;4900956;29;20177;-81
2022/06/01 04:29:10;;;;;;;7.93;2.80;;;18.40;95.40;;;;;;4977697;23;20265;-77
2022/06/01 04:31:45;;;;;;;6.13;2.50;;;18.40;95.50;;;;;;4919156;29;20092;-79
2022/06/01 04:34:11;;;;;;;7.95;3.15;;;18.50;95.20;;;;;;4919225;29;20029;-77
2022/06/01 04:36:38;;;;;;;12.85;3.63;;;18.10;95.90;;;;;;4916721;23;20057;-77
2022/06/01 04:47:32;;;;;;;5.97;2.70;;;;;;;;;;4936683;28;20044;-78
2022/06/01 04:49:58;;;;;;;7.35;2.67;;;19.50;95.70;;;;;;4922293;28;20044;-78
2022/06/01 04:55:01;;;;;;;6.82;3.05;;;18.40;95.60;;;;;;4975999;23;20044;-77
2022/06/01 05:02:55;;;;;;;10.85;3.53;;;18.40;95.40;;;;;;4944687;23;20591;-79
2022/06/01 05:05:41;;;;;;;11.05;4.53;;;18.40;95.70;;;;;;4941897;29;20084;-81
2022/06/01 05:08:26;;;;;;;14.05;4.20;;;17.60;96.90;;;;;;4964380;23;20048;-80
2022/06/01 05:16:09;;;;;;;7.50;3.53;;;17.60;97.40;;;;;;4122891;23;20040;-79
2022/06/01 05:18:36;;;;;;;8.50;3.50;;;18.20;97.20;;;;;;4906637;29;20037;-79
2022/06/01 05:21:01;;;;;;;9.07;3.80;;;18.10;96.60;;;;;;4962482;23;20072;-78
2022/06/01 05:36:26;;;;;;;10.32;4.75;;;18.30;96.00;;;;;;1087493;23;20312;-78
2022/06/01 05:39:28;;;;;;;12.70;5.45;;;18.50;96.50;;;;;;4883482;29;20037;-79
2022/06/01 05:41:56;;;;;;;8.85;4.70;;;17.80;97.00;;;;;;4892493;23;20042;-79
2022/06/01 05:44:22;;;;;;;9.50;3.83;;;;;;;;;;4885426;29;20031;-77
2022/06/01 05:47:20;;;;;;;11.82;5.80;;;18.00;96.80;;;;;;4882920;29;20040;-78
2022/06/01 05:50:03;;;;;;;14.20;5.00;;;18.10;97.40;;;;;;4885333;29;20033;-81
2022/06/01 05:52:44;;;;;;;14.85;5.95;;;17.50;97.90;;;;;;4884024;29;20060;-77
2022/06/01 05:55:23;;;;;;;12.88;7.63;;;17.40;98.40;;;;;;4885334;29;20116;-78
2022/06/01 06:02:59;;;;;;;12.77;5.68;;;17.10;99.20;;;;;;1193701;27;20048;-77
2022/06/01 06:08:22;;;;;;;11.23;5.57;;;17.00;99.60;;;;;;4927618;29;20090;-78
2022/06/01 06:10:47;;;;;;;11.63;5.50;;;17.30;98.90;;;;;;4926727;29;20020;-79
2022/06/01 06:13:13;;;;;;;13.98;6.68;;;17.30;99.10;;;;;;4932123;29;20021;-78
2022/06/01 06:15:40;;;;;;;10.27;4.63;;;17.60;98.40;;;;;;4934381;29;20256;-78
2022/06/01 06:18:06;;;;;;;12.55;5.43;;;17.90;97.70;;;;;;4934532;29;20008;-77
2022/06/01 06:20:33;;;;;;;15.23;5.35;;;17.90;97.70;;;;;;4934747;29;20064;-78
2022/06/01 06:23:04;;;;;;;14.40;5.97;;;18.10;97.40;;;;;;4933121;29;20012;-78
2022/06/01 06:25:46;;;;;;;13.52;6.25;;;18.00;97.50;;;;;;4936226;29;20032;-79
2022/06/01 06:28:32;;;;;;;13.50;6.85;;;18.00;97.50;;;;;;4935824;28;20032;-78
2022/06/01 06:31:01;;;;;;;12.60;6.10;;;17.80;97.90;;;;;;4918098;29;20020;-78
2022/06/01 06:33:27;;;;;;;19.42;6.68;;;18.30;98.40;;;;;;4921298;29;20044;-79
2022/06/01 06:36:19;;;;;;;12.20;5.38;;;17.50;98.70;;;;;;4920802;29;20008;-79
2022/06/01 06:38:47;;;;;;;13.88;4.55;;;17.80;98.10;;;;;;4921134;29;20502;-78
2022/06/01 06:41:18;;;;;;;11.55;5.72;;;18.50;97.90;;;;;;4921264;29;20008;-78
2022/06/01 06:43:45;;;;;;;12.80;5.15;;;18.40;97.10;;;;;;4937114;28;20096;-77
2022/06/01 06:46:15;;;;;;;16.42;6.75;;;18.30;97.00;;;;;;4908798;29;20028;-78
2022/06/01 06:48:50;;;;;;;12.90;5.85;;;18.30;97.20;;;;;;4922442;29;20381;-79
2022/06/01 06:51:22;;;;;;;17.98;7.13;;;18.60;96.80;;;;;;4906909;29;20043;-93
2022/06/01 06:53:48;;;;;;;22.90;9.48;;;18.20;97.30;;;;;;4900501;29;20096;-92
2022/06/01 06:56:15;;;;;;;16.30;7.68;;;17.90;98.40;;;;;;4897600;29;20177;-86
2022/06/01 06:58:41;;;;;;;17.38;8.18;;;17.70;98.60;;;;;;4910504;29;20084;-87
2022/06/01 07:01:10;;;;;;;13.15;7.72;;;17.20;99.80;;;;;;4908690;29;20096;-86
2022/06/01 07:03:52;;;;;;;14.00;7.88;;;17.20;99.90;;;;;;4890104;29;20062;-88
2022/06/01 07:06:26;;;;;;;15.50;8.90;;;16.10;99.90;;;;;;4891847;29;20048;-94
2022/06/01 07:09:09;;;;;;;22.85;8.82;;;16.80;99.90;;;;;;4889471;29;20024;-92
2022/06/01 07:11:44;;;;;;;18.83;7.57;;;17.30;99.90;;;;;;4887731;29;20044;-90
2022/06/01 07:14:10;;;;;;;12.77;7.15;;;18.20;99.90;;;;;;4870388;29;20068;-87
2022/06/01 07:16:45;;;;;;;16.70;8.02;;;16.90;99.90;;;;;;4887724;29;20068;-86
2022/06/01 07:19:19;;;;;;;13.57;6.97;;;16.90;99.90;;;;;;5036778;23;20068;-86
2022/06/01 07:21:45;;;;;;;18.27;8.02;;;18.50;99.90;;;;;;4851074;29;20057;-92
2022/06/01 07:24:26;;;;;;;13.90;8.20;;;17.20;99.90;;;;;;4867389;29;20737;-94
2022/06/01 07:27:01;;;;;;;13.43;6.75;;;18.00;99.90;;;;;;4867729;29;20680;-88
2022/06/01 07:29:33;;;;;;;18.73;7.45;;;17.70;99.90;;;;;;4838968;29;20453;-88
2022/06/01 07:32:05;;;;;;;15.27;7.72;;;18.10;99.90;;;;;;4853277;29;20025;-92
2022/06/01 07:34:42;;;;;;;17.58;7.60;;;17.80;99.80;;;;;;4869968;29;20105;-93
2022/06/01 07:43:06;;;;;;;19.35;7.55;;;18.30;99.30;;;;;;4868156;29;20079;-88
2022/06/01 07:45:43;;;;;;;15.75;7.63;;;18.50;99.50;;;;;;4850938;29;20037;-85
2022/06/01 07:48:12;;;;;;;14.43;6.25;;;18.30;99.30;;;;;;4871439;29;20564;-89
2022/06/01 07:50:47;;;;;;;13.10;6.97;;;18.40;99.20;;;;;;4852812;29;20040;-95
2022/06/01 07:56:22;;;;;;;12.90;7.38;;;20.40;98.30;;;;;;4897029;23;20048;-87
2022/06/01 07:58:57;;;;;;;12.60;6.43;;;17.00;97.10;;;;;;4875560;29;20175;-91
2022/06/01 08:01:25;;;;;;;13.13;6.57;;;19.20;97.50;;;;;;4887270;29;20020;-88
2022/06/01 08:03:59;;;;;;;14.93;6.43;;;19.20;97.70;;;;;;4869947;29;20025;-94
2022/06/01 08:06:28;;;;;;;12.23;6.93;;;19.50;97.10;;;;;;4869073;29;20087;-88
2022/06/01 08:08:54;;;;;;;14.18;6.53;;;19.70;96.90;;;;;;4886135;29;20139;-89
2022/06/01 08:13:06;;;;;;;12.75;6.78;;;19.90;96.20;;;;;;4870220;29;20021;-94
2022/06/01 08:14:07;;;;;;;14.70;6.97;;;;;;;;;;4888341;29;20039;-86
2022/06/01 08:16:33;;;;;;;12.60;5.95;;;20.00;96.00;;;;;;4869673;29;20025;-90
2022/06/01 08:19:02;;;;;;;12.90;6.43;;;20.10;96.50;;;;;;4872345;29;20692;-95
2022/06/01 08:21:31;;;;;;;15.70;6.43;;;20.20;95.60;;;;;;4872071;29;20423;-84
2022/06/01 08:23:57;;;;;;;14.52;6.15;;;20.30;95.40;;;;;;4887384;29;20024;-89
2022/06/01 08:26:23;;;;;;;11.15;5.97;;;20.40;94.60;;;;;;4869525;29;20040;-89
2022/06/01 08:28:49;;;;;;;11.10;5.50;;;20.60;94.60;;;;;;4869173;29;20139;-84
2022/06/01 08:31:27;;;;;;;13.43;5.97;;;20.80;94.50;;;;;;4942744;23;20065;-92
2022/06/01 08:34:15;;;;;;;13.02;6.60;;;21.00;94.10;;;;;;4830986;29;20134;-87
2022/06/01 08:36:41;;;;;;;10.85;4.97;;;21.70;94.00;;;;;;4848788;29;20025;-87
2022/06/01 08:39:06;;;;;;;13.80;5.80;;;21.50;93.30;;;;;;4850141;29;20107;-81
2022/06/01 08:41:37;;;;;;;14.27;6.25;;;21.60;92.50;;;;;;4831827;29;20032;-90
2022/06/01 08:46:37;;;;;;;13.18;6.40;;;21.70;93.40;;;;;;4868634;29;20057;-92
2022/06/01 08:49:25;;;;;;;16.63;6.63;;;21.90;93.00;;;;;;4866591;29;20025;-94
2022/06/01 08:51:53;;;;;;;13.38;6.65;;;22.00;92.20;;;;;;4874786;23;20053;-88
2022/06/01 08:54:20;;;;;;;12.00;5.93;;;22.30;91.50;;;;;;4869452;29;20033;-84
2022/06/01 08:56:50;;;;;;;18.73;6.65;;;22.30;91.50;;;;;;4853050;29;20036;-89
2022/06/01 08:59:29;;;;;;;12.80;5.85;;;22.40;91.30;;;;;;4851474;29;20057;-87
2022/06/01 09:02:32;;;;;;;14.50;5.88;;;22.30;91.00;;;;;;4868027;29;20328;-93
2022/06/01 09:05:18;;;;;;;12.07;5.43;;;22.80;91.20;;;;;;4790968;29;20407;-95
2022/06/01 09:08:28;;;;;;;13.55;5.22;;;23.00;90.20;;;;;;4793943;29;20362;-90
2022/06/01 09:11:01;;;;;;;15.93;6.40;;;23.20;89.20;;;;;;4739926;30;20048;-90
2022/06/01 09:13:37;;;;;;;12.60;6.13;;;23.40;89.50;;;;;;4754625;29;20130;-91
2022/06/01 09:16:32;;;;;;;12.57;5.57;;;23.60;89.20;;;;;;4739539;30;20314;-90
2022/06/01 09:18:59;;;;;;;13.50;5.80;;;23.60;87.70;;;;;;4719297;30;20111;-88
2022/06/01 09:24:13;;;;;;;12.35;5.25;;;24.00;86.50;;;;;;4718861;30;20514;-88
2022/06/01 09:27:02;;;;;;;14.25;5.53;;;24.20;84.40;;;;;;4719153;30;20063;-93
2022/06/01 09:29:32;;;;;;;10.88;5.35;;;24.20;86.30;;;;;;4719508;30;20045;-92
2022/06/01 09:32:07;;;;;;;13.73;5.88;;;24.00;84.20;;;;;;4704927;30;20025;-88
2022/06/01 09:34:47;;;;;;;12.05;5.22;;;24.00;88.10;;;;;;4704778;30;20638;-92
2022/06/01 09:37:23;;;;;;;15.00;5.82;;;24.40;85.10;;;;;;4722475;30;20602;-82
2022/06/01 09:40:00;;;;;;;12.70;6.15;;;24.70;84.40;;;;;;4727362;30;20041;-91
2022/06/01 09:42:40;;;;;;;12.00;5.90;;;24.70;84.50;;;;;;4765861;30;20040;-92
2022/06/01 09:45:27;;;;;;;14.82;6.03;;;24.90;83.10;;;;;;4761107;30;20053;-85
2022/06/01 09:48:09;;;;;;;14.73;5.97;;;24.90;83.90;;;;;;4842555;29;20060;-86
2022/06/01 09:50:43;;;;;;;13.48;6.38;;;25.00;83.80;;;;;;4844044;29;20050;-94
2022/06/01 09:53:17;;;;;;;11.60;4.95;;;25.10;83.90;;;;;;4853219;29;20249;-91
2022/06/01 09:56:16;;;;;;;13.00;5.72;;;25.30;81.90;;;;;;4870375;29;20301;-92
2022/06/01 10:07:28;;;;;;;10.23;5.53;;;25.60;84.10;;;;;;4877003;29;20096;-89
2022/06/01 10:10:04;;;;;;;11.50;5.40;;;25.70;83.10;;;;;;4874903;29;20021;-93
2022/06/01 10:12:52;;;;;;;10.90;4.88;;;26.00;82.50;;;;;;4874396;29;20025;-90
2022/06/01 10:15:30;;;;;;;12.00;4.65;;;26.30;81.80;;;;;;4870304;29;20061;-93
2022/06/01 10:18:01;;;;;;;11.48;5.82;;;26.50;81.30;;;;;;4869769;29;20081;-86
2022/06/01 10:20:32;;;;;;;9.73;5.03;;;26.70;79.90;;;;;;4868241;29;20029;-87
2022/06/01 10:23:01;;;;;;;10.52;6.35;;;27.00;80.00;;;;;;4851976;29;20021;-93
2022/06/01 10:25:41;;;;;;;11.40;5.47;;;27.10;78.90;;;;;;4852196;29;20079;-91
2022/06/01 10:28:33;;;;;;;12.93;4.85;;;27.30;78.60;;;;;;4873371;29;20498;-91
2022/06/01 10:31:08;;;;;;;9.68;3.08;;;27.40;76.50;;;;;;4873679;29;20076;-86
2022/06/01 10:33:44;;;;;;;7.28;2.63;;;27.60;71.90;;;;;;4898103;29;20021;-91
2022/06/01 10:36:59;;;;;;;15.60;3.78;;;27.60;69.40;;;;;;4882093;29;20116;-85
2022/06/01 10:39:49;;;;;;;8.93;2.60;;;27.50;68.50;;;;;;4779229;30;20039;-88
2022/06/01 10:45:21;;;;;;;8.15;2.97;;;27.50;67.00;;;;;;4760116;30;20774;-94
2022/06/01 10:48:16;;;;;;;9.40;2.97;;;27.70;64.70;;;;;;4761473;30;20039;-91
2022/06/01 10:51:09;;;;;;;8.32;2.63;;;28.00;64.10;;;;;;4763756;30;20619;-90
2022/06/01 10:54:04;;;;;;;7.82;3.20;;;28.40;63.90;;;;;;4761258;30;20028;-88
2022/06/01 10:56:31;;;;;;;9.68;3.50;;;28.60;62.40;;;;;;4749659;30;20028;-91
2022/06/01 10:59:01;;;;;;;11.93;3.50;;;29.00;61.20;;;;;;4756501;30;20020;-90
2022/06/01 11:01:54;;;;;;;8.55;2.80;;;29.00;60.80;;;;;;4756426;30;20040;-85
2022/06/01 11:04:48;;;;;;;10.27;2.78;;;28.50;60.60;;;;;;4755862;30;20230;-87
2022/06/01 11:07:28;;;;;;;11.00;2.95;;;29.00;60.10;;;;;;4757063;30;20813;-93
2022/06/01 11:09:55;;;;;;;7.50;2.13;;;29.30;59.20;;;;;;4760610;30;20035;-90
2022/06/01 11:12:45;;;;;;;7.50;2.22;;;29.40;56.50;;;;;;4757696;30;20135;-86
2022/06/01 11:15:49;;;;;;;10.13;2.22;;;29.50;57.00;;;;;;4769453;29;20031;-85
2022/06/01 11:18:27;;;;;;;6.38;2.30;;;29.80;55.70;;;;;;4835577;29;20053;-89
2022/06/01 11:21:15;;;;;;;5.18;2.05;;;30.00;55.00;;;;;;4847846;29;20180;-89
2022/06/01 11:23:59;;;;;;;8.85;2.25;;;30.10;53.50;;;;;;4867551;29;20048;-82
2022/06/01 11:27:10;;;;;;;12.63;2.83;;;30.40;53.60;;;;;;4870573;29;20101;-82
2022/06/01 11:29:53;;;;;;;7.93;2.30;;;30.40;52.50;;;;;;4864372;29;20341;-91
2022/06/01 11:32:30;;;;;;;8.40;2.53;;;30.50;52.60;;;;;;4878057;29;20037;-88
2022/06/01 11:35:08;;;;;;;9.10;2.10;;;30.90;52.60;;;;;;4890915;29;20025;-89
2022/06/01 11:37:58;;;;;;;5.47;1.75;;;31.40;50.60;;;;;;4877070;29;20029;-84
2022/06/01 11:40:44;;;;;;;8.77;2.38;;;31.60;49.20;;;;;;4873479;29;20028;-87
2022/06/01 11:43:14;;;;;;;10.73;2.95;;;31.70;50.00;;;;;;4872881;29;20081;-91
2022/06/01 11:46:25;;;;;;;7.00;2.05;;;31.90;48.90;;;;;;4871763;29;20032;-82
2022/06/01 11:48:57;;;;;;;8.25;2.03;;;31.70;47.50;;;;;;4840280;29;20033;-81
2022/06/01 11:51:38;;;;;;;9.30;2.20;;;31.60;47.90;;;;;;4817476;29;20042;-82
2022/06/01 11:54:17;;;;;;;8.23;2.25;;;31.90;46.90;;;;;;4821978;29;20159;-77
2022/06/01 11:57:49;;;;;;;8.80;2.22;;;31.90;47.60;;;;;;4844299;29;20057;-80
2022/06/01 12:00:57;;;;;;;4.28;1.83;;;31.50;47.00;;;;;;4788699;30;20032;-77
2022/06/01 12:04:16;;;;;;;8.70;2.40;;;31.60;47.30;;;;;;4789346;29;20107;-80
2022/06/01 12:07:34;;;;;;;8.67;2.87;;;31.10;47.40;;;;;;4754469;30;20032;-84
2022/06/01 12:10:22;;;;;;;10.02;2.00;;;31.00;48.70;;;;;;4736051;30;20033;-86
2022/06/01 12:12:54;;;;;;;8.20;2.03;;;31.80;47.40;;;;;;4721610;30;20025;-81
2022/06/01 12:15:32;;;;;;;5.50;1.85;;;32.50;46.50;;;;;;4732272;30;20049;-80
2022/06/01 12:18:29;;;;;;;9.82;2.47;;;32.80;46.90;;;;;;4735855;30;20112;-80
2022/06/01 12:21:20;;;;;;;7.72;2.13;;;32.80;45.80;;;;;;4721019;30;20078;-81
2022/06/01 12:30:17;;;;;;;5.75;1.90;;;32.90;45.30;;;;;;4749509;30;20103;-77
2022/06/01 12:33:03;;;;;;;7.60;2.53;;;32.90;44.70;;;;;;4749127;30;20031;-79
2022/06/01 12:35:52;;;;;;;5.15;1.80;;;33.30;45.10;;;;;;4759738;29;20131;-92
2022/06/01 12:38:33;;;;;;;5.55;2.20;;;33.60;44.00;;;;;;4803718;29;20043;-79
2022/06/01 12:41:37;;;;;;;8.17;1.77;;;33.80;43.50;;;;;;4815315;29;20122;-86
2022/06/01 12:44:10;;;;;;;7.50;2.00;;;33.90;43.90;;;;;;4784971;29;20038;-85
2022/06/01 12:46:52;;;;;;;6.47;2.00;;;34.70;43.70;;;;;;4834875;29;20056;-85
2022/06/01 12:49:36;;;;;;;6.72;2.08;;;34.90;43.50;;;;;;4855384;29;20022;-86
2022/06/01 12:52:16;;;;;;;8.85;1.83;;;35.30;43.30;;;;;;4879915;29;20049;-90
2022/06/01 12:55:04;;;;;;;11.77;2.20;;;35.50;42.40;;;;;;4872459;29;20117;-85
2022/06/01 12:57:41;;;;;;;8.48;2.72;;;35.60;42.50;;;;;;4875449;29;20041;-92
2022/06/01 13:00:17;;;;;;;6.32;2.35;;;35.60;42.00;;;;;;4861413;29;20036;-87
2022/06/01 13:02:45;;;;;;;7.85;3.15;;;36.10;41.80;;;;;;4889835;29;20416;-94
2022/06/01 13:05:35;;;;;;;7.82;1.95;;;35.50;41.40;;;;;;4887604;29;20017;-96
2022/06/01 13:08:04;;;;;;;8.98;2.10;;;35.70;41.20;;;;;;4892021;29;20037;-83
2022/06/01 13:10:35;;;;;;;6.15;1.60;;;35.40;41.80;;;;;;4875668;29;20025;-94
2022/06/01 13:13:18;;;;;;;10.38;3.33;;;34.70;42.50;;;;;;4891116;29;20037;-85
2022/06/01 13:15:52;;;;;;;7.95;2.15;;;34.40;43.00;;;;;;4897208;29;20025;-80
2022/06/01 13:18:42;;;;;;;5.43;2.42;;;34.60;42.90;;;;;;4894521;29;20037;-89
2022/06/01 13:21:11;;;;;;;11.80;2.13;;;34.20;42.90;;;;;;4874025;29;20017;-89
2022/06/01 13:24:11;;;;;;;9.48;2.88;;;34.20;43.30;;;;;;4899020;29;20067;-78
2022/06/01 13:26:44;;;;;;;8.52;1.85;;;34.20;43.10;;;;;;4901565;29;20028;-94
2022/06/01 13:29:14;;;;;;;9.07;1.98;;;34.50;42.40;;;;;;4881752;29;20046;-81
2022/06/01 13:31:45;;;;;;;5.53;2.20;;;34.90;42.70;;;;;;4878296;29;20032;-81
2022/06/01 13:34:25;;;;;;;8.60;2.20;;;35.00;41.90;;;;;;4881058;29;20025;-77
2022/06/01 13:37:21;;;;;;;7.88;2.15;;;35.20;40.90;;;;;;4895231;29;20025;-79
2022/06/01 13:40:19;;;;;;;7.25;2.28;;;36.20;40.30;;;;;;4900321;29;20025;-86
2022/06/01 13:43:00;;;;;;;12.40;1.98;;;37.30;40.60;;;;;;4897728;29;20040;-79
2022/06/01 13:45:58;;;;;;;9.75;3.25;;;37.50;39.80;;;;;;4891495;29;20025;-77
2022/06/01 13:48:48;;;;;;;6.85;2.00;;;37.10;38.90;;;;;;4885280;29;20037;-84
2022/06/01 13:51:38;;;;;;;6.60;2.05;;;37.30;39.20;;;;;;4885668;29;20051;-79
2022/06/01 13:54:33;;;;;;;6.28;1.95;;;37.30;38.50;;;;;;4836923;29;20061;-85
2022/06/01 13:57:25;;;;;;;11.60;2.97;;;37.40;38.60;;;;;;4832271;29;20038;-78
2022/06/01 14:00:06;;;;;;;5.80;2.00;;;37.30;38.70;;;;;;4830776;29;20085;-86
2022/06/01 14:02:45;;;;;;;10.00;2.20;;;38.00;38.70;;;;;;4827950;29;20044;-79
2022/06/01 14:05:19;;;;;;;5.70;1.50;;;37.80;38.40;;;;;;4827878;29;20113;-81
2022/06/01 14:07:49;;;;;;;5.80;1.85;;;36.90;38.70;;;;;;4827981;29;20042;-80
2022/06/01 14:10:29;;;;;;;7.40;2.42;;;37.00;39.30;;;;;;4828856;29;20030;-78
2022/06/01 14:12:54;;;;;;;6.80;1.98;;;36.60;39.90;;;;;;4830724;29;20058;-85
2022/06/01 14:15:20;;;;;;;6.47;2.20;;;36.90;39.90;;;;;;4833014;29;20453;-80
2022/06/01 14:17:48;;;;;;;9.50;2.25;;;37.40;39.70;;;;;;4828596;29;20039;-83
2022/06/01 14:20:15;;;;;;;8.82;2.00;;;37.50;39.40;;;;;;4811387;29;20306;-80
2022/06/01 14:22:41;;;;;;;4.43;1.67;;;37.20;39.50;;;;;;4826314;29;20038;-80
2022/06/01 14:30:52;;;;;;;5.95;2.33;;;38.00;39.00;;;;;;4846672;29;20487;-84
2022/06/01 14:33:18;;;;;;;7.80;2.22;;;37.70;39.80;;;;;;4866415;29;20153;-82
2022/06/01 14:35:44;;;;;;;9.07;1.90;;;37.60;40.30;;;;;;4887977;29;20036;-89
2022/06/01 14:38:11;;;;;;;8.88;2.35;;;37.70;40.30;;;;;;4881370;29;20029;-85
2022/06/01 14:40:40;;;;;;;7.35;2.03;;;37.10;41.00;;;;;;4882769;29;20048;-80
2022/06/01 14:43:08;;;;;;;8.73;3.38;;;37.00;41.30;;;;;;4879643;29;20397;-80
2022/06/01 14:45:35;;;;;;;16.33;3.25;;;36.90;41.10;;;;;;4879544;29;20025;-80
2022/06/01 14:48:01;;;;;;;8.60;2.10;;;36.60;41.40;;;;;;4878884;29;20037;-82
2022/06/01 14:50:27;;;;;;;9.20;2.42;;;35.60;41.70;;;;;;4881881;29;20045;-84
2022/06/01 14:52:54;;;;;;;6.07;2.00;;;34.00;43.70;;;;;;4877110;29;20281;-86
2022/06/01 14:55:20;;;;;;;9.68;2.45;;;32.90;45.00;;;;;;4879603;29;20032;-79
2022/06/01 14:57:46;;;;;;;9.25;2.92;;;32.30;46.90;;;;;;4878415;29;20020;-91
2022/06/01 15:00:13;;;;;;;9.10;3.00;;;31.50;47.50;;;;;;4881417;29;20055;-95
2022/06/01 15:02:42;;;;;;;8.65;2.90;;;31.50;48.30;;;;;;4882006;29;20056;-80
2022/06/01 15:05:10;;;;;;;7.00;2.65;;;31.80;48.50;;;;;;4886616;29;20048;-87
2022/06/01 15:07:35;;;;;;;6.72;2.38;;;32.20;47.20;;;;;;4886329;29;20049;-85
2022/06/01 15:10:06;;;;;;;11.32;3.03;;;32.10;47.90;;;;;;4886238;29;20081;-81
2022/06/01 15:12:32;;;;;;;9.00;3.65;;;32.10;48.80;;;;;;4890407;29;20025;-79
2022/06/01 15:15:00;;;;;;;6.35;2.22;;;31.70;49.30;;;;;;4892285;29;20786;-84
2022/06/01 15:17:27;;;;;;;10.52;2.72;;;31.40;49.40;;;;;;4889190;29;20032;-91
2022/06/01 15:19:55;;;;;;;10.88;2.75;;;31.30;50.40;;;;;;4871225;29;20066;-78
2022/06/01 15:22:24;;;;;;;14.55;3.25;;;31.10;50.40;;;;;;4886042;29;20025;-86
2022/06/01 15:24:52;;;;;;;7.40;2.22;;;31.20;50.80;;;;;;4878763;29;20089;-79
2022/06/01 15:27:22;;;;;;;10.35;2.80;;;30.50;51.40;;;;;;4878646;29;20052;-88
2022/06/01 15:40:46;;;;;;;9.20;2.63;;;30.10;53.50;;;;;;4892094;29;20048;-77
2022/06/01 15:43:13;;;;;;;7.88;2.70;;;30.10;53.30;;;;;;4881573;29;20033;-78
2022/06/01 15:45:48;;;;;;;8.02;2.55;;;33.00;55.10;;;;;;4889081;29;20017;-91
2022/06/01 15:48:16;;;;;;;10.23;2.55;;;30.90;53.30;;;;;;4894175;29;20033;-78
2022/06/01 15:50:46;;;;;;;8.57;2.22;;;31.70;51.80;;;;;;4889103;29;20037;-78
2022/06/01 15:53:16;;;;;;;8.35;2.50;;;32.40;49.70;;;;;;4874002;29;20070;-78
2022/06/01 15:55:48;;;;;;;8.07;2.63;;;33.20;49.30;;;;;;4896004;29;20170;-79
2022/06/01 15:58:17;;;;;;;10.10;2.50;;;33.80;48.90;;;;;;4882710;29;20021;-78
2022/06/01 16:00:46;;;;;;;7.50;2.00;;;34.50;47.20;;;;;;4881848;29;20029;-77
2022/06/01 16:03:15;;;;;;;7.55;2.60;;;34.80;45.90;;;;;;4887895;29;20033;-78
2022/06/01 16:05:42;;;;;;;5.20;1.83;;;34.80;46.50;;;;;;4884471;29;20051;-78
2022/06/01 16:08:10;;;;;;;8.38;2.92;;;35.10;46.30;;;;;;4888028;29;20037;-79